createdAt,value
2022-12-13T00:01:57.592Z,98757.88
2022-12-13T00:04:25.832Z,98749.25
2022-12-13T00:06:56.394Z,98749.78
2022-12-13T00:09:24.285Z,98755.50
2022-12-13T00:11:52.433Z,98759.53
2022-12-13T00:14:20.069Z,98777.66
2022-12-13T00:16:49.310Z,98771.50
2022-12-13T00:19:18.128Z,98770.00
2022-12-13T00:21:46.891Z,98759.84
2022-12-13T00:24:14.839Z,98764.66
2022-12-13T00:26:42.435Z,98758.66
2022-12-13T00:29:11.930Z,98764.06
2022-12-13T00:34:27.537Z,98765.97
2022-12-13T00:36:55.999Z,98753.84
2022-12-13T00:39:23.562Z,98769.13
2022-12-13T00:41:51.205Z,98762.47
2022-12-13T00:44:20.078Z,98765.25
2022-12-13T00:46:48.075Z,98754.94
2022-12-13T00:49:15.884Z,98742.91
2022-12-13T00:51:44.159Z,98755.66
2022-12-13T00:54:12.015Z,98743.44
2022-12-13T00:56:39.630Z,98759.78
2022-12-13T00:59:07.677Z,98773.31
2022-12-13T01:01:36.911Z,98746.25
2022-12-13T01:04:05.743Z,98754.78
2022-12-13T01:06:45.371Z,98753.19
2022-12-13T01:09:17.492Z,98756.59
2022-12-13T01:11:46.035Z,98751.63
2022-12-13T01:14:13.935Z,98743.06
2022-12-13T01:16:41.522Z,98742.50
2022-12-13T01:19:09.061Z,98742.19
2022-12-13T01:21:36.666Z,98743.84
2022-12-13T01:24:05.952Z,98750.59
2022-12-13T01:26:34.519Z,98750.59
2022-12-13T01:29:05.421Z,98759.00
2022-12-13T01:31:33.162Z,98746.38
2022-12-13T01:34:00.635Z,98753.19
2022-12-13T01:36:28.497Z,98750.03
2022-12-13T01:38:59.436Z,98747.03
2022-12-13T01:41:29.003Z,98743.44
2022-12-13T01:44:03.783Z,98748.69
2022-12-13T01:46:34.044Z,98755.19
2022-12-13T01:49:19.763Z,98762.94
2022-12-13T01:51:56.143Z,98763.13
2022-12-13T01:54:33.430Z,98747.03
2022-12-13T01:57:06.158Z,98759.06
2022-12-13T01:59:38.602Z,98759.63
2022-12-13T02:02:10.015Z,98764.06
2022-12-13T02:04:47.193Z,98759.31
2022-12-13T02:07:22.993Z,98770.53
2022-12-13T02:09:56.894Z,98770.72
2022-12-13T02:12:29.445Z,98754.38
2022-12-13T02:15:14.760Z,98754.72
2022-12-13T02:18:17.420Z,98754.25
2022-12-13T02:21:09.589Z,98750.03
2022-12-13T02:23:52.722Z,98763.19
2022-12-13T02:26:46.704Z,98758.84
2022-12-13T02:29:32.793Z,98764.84
2022-12-13T02:32:35.580Z,98759.72
2022-12-13T02:35:06.697Z,98748.38
2022-12-13T02:37:55.789Z,98753.91
2022-12-13T02:40:41.997Z,98760.91
2022-12-13T02:43:21.265Z,98757.31
2022-12-13T02:45:53.729Z,98753.84
2022-12-13T02:48:32.145Z,98761.91
2022-12-13T02:51:03.621Z,98759.31
2022-12-13T02:53:33.705Z,98763.66
2022-12-13T02:56:01.513Z,98757.06
2022-12-13T02:58:33.563Z,98766.09
2022-12-13T03:01:29.065Z,98771.34
2022-12-13T03:04:09.449Z,98759.94
2022-12-13T03:07:17.957Z,98762.50
2022-12-13T03:10:02.743Z,98765.25
2022-12-13T03:13:21.997Z,98759.44
2022-12-13T03:16:04.319Z,98765.31
2022-12-13T03:18:36.199Z,98769.44
2022-12-13T03:21:06.311Z,98770.97
2022-12-13T03:23:33.895Z,98762.56
2022-12-13T03:26:12.669Z,98776.31
2022-12-13T03:28:40.981Z,98767.69
2022-12-13T03:31:08.712Z,98782.78
2022-12-13T03:33:38.935Z,98766.59
2022-12-13T03:36:09.959Z,98768.50
2022-12-13T03:38:38.501Z,98760.16
2022-12-13T03:41:10.991Z,98769.28
2022-12-13T03:43:40.606Z,98771.97
2022-12-13T03:46:08.771Z,98772.91
2022-12-13T03:48:36.704Z,98775.38
2022-12-13T03:51:04.441Z,98772.69
2022-12-13T03:53:33.563Z,98774.25
2022-12-13T03:56:04.599Z,98768.31
2022-12-13T03:58:36.220Z,98766.59
2022-12-13T04:01:06.740Z,98765.66
2022-12-13T04:03:35.027Z,98761.19
2022-12-13T04:06:03.131Z,98764.91
2022-12-13T04:08:30.690Z,98768.25
2022-12-13T04:10:58.287Z,98775.38
2022-12-13T04:13:34.808Z,98773.56
2022-12-13T04:16:03.412Z,98779.59
2022-12-13T04:18:31.094Z,98770.16
2022-12-13T04:20:58.642Z,98769.19
2022-12-13T04:23:26.244Z,98766.50
2022-12-13T04:25:54.062Z,98777.84
2022-12-13T04:28:22.583Z,98773.66
2022-12-13T04:30:53.266Z,98776.09
2022-12-13T04:33:23.376Z,98777.69
2022-12-13T04:35:51.737Z,98778.78
2022-12-13T04:38:19.543Z,98790.53
2022-12-13T04:40:47.083Z,98775.31
2022-12-13T04:43:16.117Z,98796.41
2022-12-13T04:45:43.777Z,98775.25
2022-12-13T04:48:11.441Z,98773.56
2022-12-13T04:50:38.929Z,98771.66
2022-12-13T04:53:06.673Z,98772.63
2022-12-13T04:55:34.226Z,98777.84
2022-12-13T04:58:01.802Z,98783.94
2022-12-13T05:00:29.324Z,98794.94
2022-12-13T05:02:56.909Z,98791.78
2022-12-13T05:05:24.466Z,98788.31
2022-12-13T05:07:52.055Z,98789.31
2022-12-13T05:10:33.905Z,98788.59
2022-12-13T05:13:06.031Z,98788.91
2022-12-13T05:15:34.218Z,98794.44
2022-12-13T05:18:10.014Z,98788.38
2022-12-13T05:20:41.522Z,98793.50
2022-12-13T05:23:09.706Z,98792.44
2022-12-13T05:25:37.494Z,98794.97
2022-12-13T05:28:26.810Z,98798.44
2022-12-13T05:31:49.788Z,98793.03
2022-12-13T05:34:20.034Z,98791.84
2022-12-13T05:36:47.621Z,98786.75
2022-12-13T05:43:01.372Z,98809.81
2022-12-13T05:45:32.917Z,98801.50
2022-12-13T05:48:37.524Z,98804.78
2022-12-13T05:51:09.794Z,98799.38
2022-12-13T05:53:41.060Z,98801.13
2022-12-13T05:56:10.404Z,98802.84
2022-12-13T05:58:40.674Z,98792.56
2022-12-13T06:01:11.297Z,98803.09
2022-12-13T06:03:39.703Z,98806.75
2022-12-13T06:06:08.860Z,98808.44
2022-12-13T06:08:37.279Z,98804.97
2022-12-13T06:11:11.397Z,98798.41
2022-12-13T06:13:44.353Z,98810.53
2022-12-13T06:16:22.260Z,98806.09
2022-12-13T06:19:01.217Z,98796.81
2022-12-13T06:21:44.218Z,98803.88
2022-12-13T06:24:15.577Z,98801.66
2022-12-13T06:26:45.157Z,98792.59
2022-12-13T06:29:24.245Z,98797.06
2022-12-13T06:32:02.176Z,98799.41
2022-12-13T06:34:34.014Z,98800.16
2022-12-13T06:37:04.809Z,98815.44
2022-12-13T06:39:38.808Z,98811.84
2022-12-13T06:42:10.762Z,98827.13
2022-12-13T06:44:41.641Z,98829.09
2022-12-13T06:47:10.271Z,98831.78
2022-12-13T06:49:42.920Z,98838.53
2022-12-13T06:52:12.841Z,98841.28
2022-12-13T06:54:41.138Z,98851.38
2022-12-13T06:57:09.304Z,98849.31
2022-12-13T06:59:37.007Z,98855.56
2022-12-13T07:02:06.649Z,98858.03
2022-12-13T07:04:53.957Z,98852.81
2022-12-13T07:07:22.327Z,98856.44
2022-12-13T07:09:49.831Z,98859.63
2022-12-13T07:12:19.409Z,98852.97
2022-12-13T07:14:47.498Z,98862.25
2022-12-13T07:17:31.829Z,98870.19
2022-12-13T07:20:03.120Z,98869.44
2022-12-13T07:22:34.562Z,98859.94
2022-12-13T07:25:04.951Z,98865.91
2022-12-13T07:27:32.749Z,98874.78
2022-12-13T07:30:00.712Z,98869.91
2022-12-13T07:32:28.442Z,98874.34
2022-12-13T07:34:56.284Z,98882.19
2022-12-13T07:37:30.337Z,98890.78
2022-12-13T07:40:04.041Z,98876.81
2022-12-13T07:42:32.587Z,98892.75
2022-12-13T07:45:00.119Z,98887.59
2022-12-13T07:47:31.892Z,98893.47
2022-12-13T07:49:59.528Z,98895.78
2022-12-13T07:52:31.405Z,98893.47
2022-12-13T07:54:58.972Z,98891.09
2022-12-13T07:57:26.868Z,98886.81
2022-12-13T07:59:54.425Z,98886.81
2022-12-13T08:02:21.884Z,98899.50
2022-12-13T08:04:54.645Z,98900.16
2022-12-13T08:07:23.191Z,98893.72
2022-12-13T08:09:53.036Z,98895.47
2022-12-13T08:12:22.500Z,98895.84
2022-12-13T08:14:53.512Z,98907.56
2022-12-13T08:17:21.312Z,98908.72
2022-12-13T08:19:48.840Z,98908.56
2022-12-13T08:22:16.499Z,98914.03
2022-12-13T08:24:52.124Z,98911.72
2022-12-13T08:27:19.702Z,98909.34
2022-12-13T08:29:47.391Z,98915.03
2022-12-13T08:32:14.915Z,98919.41
2022-12-13T08:34:42.622Z,98921.38
2022-12-13T08:37:10.091Z,98911.38
2022-12-13T08:39:38.944Z,98915.88
2022-12-13T08:42:16.705Z,98920.97
2022-12-13T08:44:51.011Z,98924.75
2022-12-13T08:47:25.041Z,98921.59
2022-12-13T08:50:04.246Z,98921.91
2022-12-13T08:52:40.270Z,98937.28
2022-12-13T08:55:11.066Z,98946.50
2022-12-13T08:57:39.672Z,98943.66
2022-12-13T09:00:11.002Z,98950.41
2022-12-13T09:02:39.099Z,98965.00
2022-12-13T09:05:08.535Z,98952.06
2022-12-13T09:07:37.060Z,98964.38
2022-12-13T09:10:25.894Z,98964.47
2022-12-13T09:13:01.820Z,98972.63
2022-12-13T09:15:34.287Z,98973.03
2022-12-13T09:18:04.502Z,98972.50
2022-12-13T09:20:41.082Z,98972.03
2022-12-13T09:23:22.960Z,98979.00
2022-12-13T09:25:56.524Z,98979.53
2022-12-13T09:28:37.061Z,98987.47
2022-12-13T09:31:14.049Z,98992.47
2022-12-13T09:33:42.648Z,98985.75
2022-12-13T09:36:16.871Z,98975.97
2022-12-13T09:38:44.643Z,98988.94
2022-12-13T09:41:20.167Z,98994.22
2022-12-13T09:44:01.787Z,98986.19
2022-12-13T09:46:34.954Z,98983.44
2022-12-13T09:49:38.172Z,98989.84
2022-12-13T09:52:21.358Z,98986.13
2022-12-13T09:54:56.037Z,98992.00
2022-12-13T09:57:33.879Z,98980.66
2022-12-13T10:00:11.081Z,98983.91
2022-12-13T10:02:49.688Z,98987.94
2022-12-13T10:05:34.100Z,98995.41
2022-12-13T10:08:16.894Z,98992.56
2022-12-13T10:10:45.184Z,99006.38
2022-12-13T10:13:21.130Z,98994.69
2022-12-13T10:16:02.449Z,99000.81
2022-12-13T10:18:36.409Z,99006.84
2022-12-13T10:21:28.747Z,99013.59
2022-12-13T10:24:31.403Z,99020.66
2022-12-13T10:27:16.017Z,99025.03
2022-12-13T10:30:04.355Z,99024.22
2022-12-13T10:32:42.491Z,99017.63
2022-12-13T10:35:20.639Z,99020.47
2022-12-13T10:37:48.366Z,99030.81
2022-12-13T10:40:31.869Z,99037.78
2022-12-13T10:43:16.080Z,99039.38
2022-12-13T10:46:00.232Z,99042.00
2022-12-13T10:48:47.901Z,99042.19
2022-12-13T10:51:20.275Z,99035.41
2022-12-13T10:53:55.165Z,99041.03
2022-12-13T10:56:45.758Z,99042.78
2022-12-13T10:59:21.148Z,99051.59
2022-12-13T11:01:49.073Z,99040.38
2022-12-13T11:04:33.971Z,99046.00
2022-12-13T11:07:23.611Z,99049.09
2022-12-13T11:09:52.961Z,99049.00
2022-12-13T11:12:24.680Z,99051.91
2022-12-13T11:14:59.743Z,99057.09
2022-12-13T11:17:31.155Z,99062.00
2022-12-13T11:20:02.716Z,99062.94
2022-12-13T11:22:40.560Z,99068.72
2022-12-13T11:25:18.762Z,99071.84
2022-12-13T11:27:49.019Z,99085.78
2022-12-13T11:30:30.654Z,99082.13
2022-12-13T11:33:13.039Z,99080.84
2022-12-13T11:36:11.489Z,99083.53
2022-12-13T11:39:12.492Z,99099.56
2022-12-13T11:42:06.008Z,99106.72
2022-12-13T11:44:48.021Z,99099.28
2022-12-13T11:47:25.442Z,99087.16
2022-12-13T11:49:53.921Z,99096.94
2022-12-13T11:52:29.260Z,99097.97
2022-12-13T11:55:02.578Z,99105.25
2022-12-13T11:57:47.235Z,99119.06
2022-12-13T12:00:38.279Z,99126.50
2022-12-13T12:03:36.689Z,99128.84
2022-12-13T12:06:48.158Z,99132.03
2022-12-13T12:09:20.921Z,99140.44
2022-12-13T12:12:04.799Z,99138.69
2022-12-13T12:14:45.791Z,99133.50
2022-12-13T12:17:16.203Z,99136.22
2022-12-13T12:19:46.891Z,99141.28
2022-12-13T12:22:35.684Z,99151.38
2022-12-13T12:25:44.567Z,99133.78
2022-12-13T12:28:43.989Z,99141.28
2022-12-13T12:31:24.009Z,99144.63
2022-12-13T12:34:27.923Z,99122.91
2022-12-13T12:37:12.786Z,99121.69
2022-12-13T12:39:44.712Z,99124.50
2022-12-13T12:42:49.957Z,99112.09
2022-12-13T12:51:39.494Z,99122.59
2022-12-13T12:54:48.329Z,99129.84
2022-12-13T12:57:25.715Z,99128.69
2022-12-13T13:00:10.277Z,99131.16
2022-12-13T13:02:55.976Z,99117.59
2022-12-13T13:05:32.177Z,99112.34
2022-12-13T13:08:14.435Z,99111.91
2022-12-13T13:10:49.763Z,99115.22
2022-12-13T13:13:48.768Z,99117.31
2022-12-13T13:16:27.576Z,99119.50
2022-12-13T13:18:56.829Z,99111.28
2022-12-13T13:21:24.328Z,99118.75
2022-12-13T13:24:13.282Z,99129.63
2022-12-13T13:26:43.729Z,99122.47
2022-12-13T13:29:27.979Z,99118.38
2022-12-13T13:32:27.921Z,99113.81
2022-12-13T13:35:31.073Z,99126.06
2022-12-13T13:38:03.349Z,99118.88
2022-12-13T13:40:36.348Z,99126.84
2022-12-13T13:43:06.261Z,99123.97
2022-12-13T13:45:54.821Z,99130.34
2022-12-13T13:48:43.654Z,99130.97
2022-12-13T13:52:16.866Z,99132.28
2022-12-13T13:55:00.892Z,99132.97
2022-12-13T13:58:08.397Z,99141.41
2022-12-13T14:00:30.341Z,99136.88
2022-12-13T14:03:34.621Z,99133.22
2022-12-13T14:06:37.760Z,99133.22
2022-12-13T14:09:25.828Z,99141.78
2022-12-13T14:12:11.852Z,99141.22
2022-12-13T14:15:10.091Z,99143.03
2022-12-13T14:18:25.227Z,99138.38
2022-12-13T14:21:08.168Z,99138.81
2022-12-13T14:23:44.579Z,99130.53
2022-12-13T14:26:20.586Z,99133.22
2022-12-13T14:28:52.963Z,99127.28
2022-12-13T14:31:47.160Z,99126.44
2022-12-13T14:34:26.717Z,99128.09
2022-12-13T14:37:21.884Z,99120.28
2022-12-13T14:39:49.545Z,99113.84
2022-12-13T14:42:26.322Z,99124.41
2022-12-13T14:44:53.884Z,99126.06
2022-12-13T14:47:23.072Z,99123.34
2022-12-13T14:49:55.291Z,99118.03
2022-12-13T14:52:27.126Z,99130.78
2022-12-13T14:54:58.699Z,99115.50
2022-12-13T14:57:28.953Z,99117.31
2022-12-13T14:59:59.064Z,99114.69
2022-12-13T15:02:31.372Z,99123.09
2022-12-13T15:05:02.131Z,99119.84
2022-12-13T15:07:37.230Z,99119.19
2022-12-13T15:10:06.982Z,99107.19
2022-12-13T15:12:34.572Z,99117.84
2022-12-13T15:15:08.280Z,99124.25
2022-12-13T15:17:39.260Z,99123.47
2022-12-13T15:20:32.384Z,99138.41
2022-12-13T15:23:12.552Z,99132.91
2022-12-13T15:25:43.610Z,99129.41
2022-12-13T15:28:16.854Z,99128.63
2022-12-13T15:30:47.795Z,99122.91
2022-12-13T15:33:32.358Z,99119.84
2022-12-13T15:36:07.882Z,99122.84
2022-12-13T15:38:40.541Z,99128.78
2022-12-13T15:41:17.337Z,99128.06
2022-12-13T15:43:49.360Z,99133.94
2022-12-13T15:46:28.106Z,99127.91
2022-12-13T15:48:59.087Z,99140.44
2022-12-13T15:51:29.728Z,99139.56
2022-12-13T15:54:21.366Z,99133.41
2022-12-13T15:57:22.680Z,99142.09
2022-12-13T16:00:30.332Z,99133.75
2022-12-13T16:03:16.306Z,99128.69
2022-12-13T16:06:02.618Z,99130.59
2022-12-13T16:08:33.640Z,99135.16
2022-12-13T16:11:02.317Z,99137.78
2022-12-13T16:13:37.500Z,99142.16
2022-12-13T16:16:30.597Z,99123.69
2022-12-13T16:19:00.407Z,99124.34
2022-12-13T16:21:28.960Z,99119.94
2022-12-13T16:23:56.504Z,99127.31
2022-12-13T16:26:27.392Z,99126.59
2022-12-13T16:28:58.800Z,99123.09
2022-12-13T16:31:31.526Z,99118.03
2022-12-13T16:33:59.172Z,99113.03
2022-12-13T16:36:26.801Z,99109.44
2022-12-13T16:38:54.601Z,99112.84
2022-12-13T16:41:22.480Z,99119.25
2022-12-13T16:44:01.634Z,99110.44
2022-12-13T16:47:12.560Z,99106.38
2022-12-13T16:49:25.405Z,99108.41
2022-12-13T16:51:53.960Z,99102.31
2022-12-13T16:54:23.830Z,99111.53
2022-12-13T16:56:52.623Z,99097.56
2022-12-13T16:59:23.768Z,99101.50
2022-12-13T17:01:52.347Z,99099.50
2022-12-13T17:04:23.533Z,99102.53
2022-12-13T17:06:54.887Z,99089.78
2022-12-13T17:09:25.095Z,99079.38
2022-12-13T17:11:52.803Z,99086.22
2022-12-13T17:14:20.957Z,99080.88
2022-12-13T17:16:48.614Z,99076.59
2022-12-13T17:19:17.492Z,99074.22
2022-12-13T17:21:45.245Z,99074.13
2022-12-13T17:24:12.899Z,99074.22
2022-12-13T17:26:40.625Z,99081.16
2022-12-13T17:29:10.846Z,99071.09
2022-12-13T17:31:40.733Z,99072.75
2022-12-13T17:34:08.267Z,99077.81
2022-12-13T17:36:36.109Z,99071.69
2022-12-13T17:39:04.270Z,99069.16
2022-12-13T17:41:31.918Z,99064.88
2022-12-13T17:44:00.594Z,99059.00
2022-12-13T17:46:28.271Z,99041.97
2022-12-13T17:48:56.208Z,99037.88
2022-12-13T17:51:23.792Z,99033.75
2022-12-13T17:53:51.399Z,99032.88
2022-12-13T17:56:19.893Z,99038.81
2022-12-13T17:58:47.859Z,99031.31
2022-12-13T18:01:15.397Z,99028.00
2022-12-13T18:03:43.187Z,99023.59
2022-12-13T18:06:11.305Z,99014.53
2022-12-13T18:08:40.491Z,99013.38
2022-12-13T18:11:31.918Z,99016.28
2022-12-13T18:13:56.608Z,99010.34
2022-12-13T18:16:32.011Z,99003.44
2022-12-13T18:19:08.755Z,99004.53
2022-12-13T18:21:37.407Z,98997.81
2022-12-13T18:24:06.901Z,98982.72
2022-12-13T18:26:34.728Z,98985.34
2022-12-13T18:29:03.038Z,98982.78
2022-12-13T18:31:30.766Z,98967.50
2022-12-13T18:33:58.541Z,98960.66
2022-12-13T18:36:28.411Z,98965.84
2022-12-13T18:38:57.033Z,98974.41
2022-12-13T18:41:28.591Z,98963.63
2022-12-13T18:44:05.447Z,98960.31
2022-12-13T18:46:35.412Z,98944.78
2022-12-13T18:49:05.175Z,98942.84
2022-12-13T18:51:33.431Z,98951.16
2022-12-13T18:54:00.991Z,98955.50
2022-12-13T18:56:28.908Z,98949.41
2022-12-13T18:58:58.144Z,98949.22
2022-12-13T19:01:28.945Z,98939.88
2022-12-13T19:03:56.572Z,98939.88
2022-12-13T19:06:26.543Z,98944.88
2022-12-13T19:08:56.493Z,98934.31
2022-12-13T19:11:26.094Z,98941.03
2022-12-13T19:13:55.543Z,98935.25
2022-12-13T19:16:25.111Z,98936.50
2022-12-13T19:18:54.433Z,98922.38
2022-12-13T19:21:22.786Z,98920.88
2022-12-13T19:23:57.074Z,98913.28
2022-12-13T19:26:27.515Z,98904.81
2022-12-13T19:28:57.421Z,98903.88
2022-12-13T19:31:30.474Z,98911.63
2022-12-13T19:34:01.799Z,98911.31
2022-12-13T19:36:30.881Z,98909.00
2022-12-13T19:38:58.866Z,98895.84
2022-12-13T19:41:27.263Z,98896.09
2022-12-13T19:43:55.201Z,98899.50
2022-12-13T19:46:22.861Z,98891.72
2022-12-13T19:48:50.715Z,98887.38
2022-12-13T19:51:18.240Z,98887.28
2022-12-13T19:53:45.919Z,98883.16
2022-12-13T19:56:18.000Z,98878.09
2022-12-13T19:58:47.404Z,98877.94
2022-12-13T20:01:16.191Z,98883.59
2022-12-13T20:03:45.768Z,98893.03
2022-12-13T20:06:17.482Z,98887.13
2022-12-13T20:08:46.511Z,98898.00
2022-12-13T20:11:20.489Z,98891.72
2022-12-13T20:13:49.562Z,98889.44
2022-12-13T20:16:20.108Z,98894.91
2022-12-13T20:18:47.829Z,98886.63
2022-12-13T20:21:15.753Z,98891.88
2022-12-13T20:23:48.897Z,98885.06
2022-12-13T20:26:20.821Z,98878.31
2022-12-13T20:28:49.318Z,98871.09
2022-12-13T20:31:19.544Z,98858.81
2022-12-13T20:33:48.361Z,98858.13
2022-12-13T20:36:26.692Z,98858.44
2022-12-13T20:38:57.161Z,98835.03
2022-12-13T20:41:27.024Z,98839.69
2022-12-13T20:43:57.267Z,98831.56
2022-12-13T20:46:26.941Z,98846.19
2022-12-13T20:48:56.262Z,98852.81
2022-12-13T20:51:26.705Z,98843.97
2022-12-13T20:53:55.266Z,98847.78
2022-12-13T20:56:26.161Z,98845.72
2022-12-13T20:58:54.370Z,98844.06
2022-12-13T21:01:24.619Z,98857.84
2022-12-13T21:03:57.095Z,98843.38
2022-12-13T21:06:24.749Z,98835.00
2022-12-13T21:08:52.921Z,98839.75
2022-12-13T21:11:24.612Z,98829.28
2022-12-13T21:14:16.761Z,98832.56
2022-12-13T21:16:48.406Z,98833.84
2022-12-13T21:19:19.404Z,98829.28
2022-12-13T21:21:47.644Z,98828.13
2022-12-13T21:24:16.495Z,98834.53
2022-12-13T21:26:45.090Z,98825.63
2022-12-13T21:29:15.254Z,98826.59
2022-12-13T21:31:48.860Z,98829.59
2022-12-13T21:34:18.787Z,98826.19
2022-12-13T21:36:48.798Z,98828.13
2022-12-13T21:39:30.072Z,98824.44
2022-12-13T21:41:58.285Z,98834.78
2022-12-13T21:44:25.860Z,98794.22
2022-12-13T21:49:41.279Z,98797.88
2022-12-13T21:52:08.797Z,98802.41
2022-12-13T21:54:36.448Z,98793.25
2022-12-13T21:57:22.643Z,98791.59
2022-12-13T21:59:52.527Z,98778.34
2022-12-13T22:02:20.282Z,98771.16
2022-12-13T22:04:52.683Z,98768.53
2022-12-13T22:07:26.395Z,98778.50
2022-12-13T22:09:54.777Z,98770.56
2022-12-13T22:12:40.877Z,98762.72
2022-12-13T22:15:13.980Z,98747.88
2022-12-13T22:17:43.298Z,98754.44
2022-12-13T22:20:14.210Z,98752.50
2022-12-13T22:22:44.283Z,98764.94
2022-12-13T22:25:12.515Z,98756.50
2022-12-13T22:27:40.670Z,98767.53
2022-12-13T22:30:09.030Z,98769.25
2022-12-13T22:32:44.018Z,98764.94
2022-12-13T22:35:12.043Z,98755.06
2022-12-13T22:37:39.708Z,98747.69
2022-12-13T22:40:07.900Z,98747.34
2022-12-13T22:42:35.782Z,98752.78
2022-12-13T22:45:03.572Z,98747.47
2022-12-13T22:47:31.435Z,98743.47
2022-12-13T22:49:58.976Z,98738.84
2022-12-13T22:52:33.430Z,98728.75
2022-12-13T22:55:02.571Z,98719.34
2022-12-13T22:57:31.555Z,98723.13
2022-12-13T22:59:59.038Z,98715.78
2022-12-13T23:02:27.029Z,98716.25
2022-12-13T23:04:54.679Z,98702.13
2022-12-13T23:07:22.381Z,98693.09
2022-12-13T23:09:49.991Z,98690.19
2022-12-13T23:12:36.048Z,98677.56
2022-12-13T23:15:04.298Z,98677.66
2022-12-13T23:17:32.661Z,98658.84
2022-12-13T23:20:00.402Z,98675.81
2022-12-13T23:22:27.960Z,98660.50
2022-12-13T23:24:55.662Z,98661.28
2022-12-13T23:27:24.448Z,98651.19
2022-12-13T23:29:52.183Z,98654.88
2022-12-13T23:32:19.690Z,98652.56
2022-12-13T23:34:47.221Z,98626.66
2022-12-13T23:37:17.044Z,98643.63
2022-12-13T23:39:44.674Z,98631.63
2022-12-13T23:42:12.146Z,98632.94
2022-12-13T23:44:39.770Z,98624.97
2022-12-13T23:47:07.341Z,98623.50
2022-12-13T23:49:35.084Z,98618.94
2022-12-13T23:52:02.688Z,98612.66
2022-12-13T23:54:30.187Z,98613.31
2022-12-13T23:56:57.703Z,98616.19
2022-12-13T23:59:26.241Z,98607.09
